createdAt,value
2019-01-12T00:00:40.502Z,33.20
2019-01-12T00:01:40.441Z,33.40
2019-01-12T00:02:40.641Z,33.30
2019-01-12T00:03:40.424Z,33.40
2019-01-12T00:04:40.432Z,33.90
2019-01-12T00:05:40.410Z,33.10
2019-01-12T00:06:40.427Z,33.60
2019-01-12T00:07:40.398Z,33.80
2019-01-12T00:08:40.459Z,34.20
2019-01-12T00:09:40.377Z,34.50
2019-01-12T00:10:40.372Z,35.00
2019-01-12T00:11:40.374Z,35.70
2019-01-12T00:12:40.368Z,33.90
2019-01-12T00:13:40.352Z,34.50
2019-01-12T00:14:40.346Z,34.20
2019-01-12T00:15:40.335Z,33.90
2019-01-12T00:16:40.329Z,34.10
2019-01-12T00:17:40.335Z,34.00
2019-01-12T00:18:40.317Z,33.80
2019-01-12T00:19:40.315Z,33.50
2019-01-12T00:20:40.295Z,33.80
2019-01-12T00:21:40.293Z,33.30
2019-01-12T00:22:40.287Z,32.20
2019-01-12T00:23:40.286Z,33.80
2019-01-12T00:24:40.269Z,33.10
2019-01-12T00:25:40.289Z,32.00
2019-01-12T00:26:40.261Z,33.00
2019-01-12T00:27:40.261Z,33.20
2019-01-12T00:28:40.238Z,33.50
2019-01-12T00:29:40.240Z,33.70
2019-01-12T00:30:40.239Z,31.50
2019-01-12T00:31:40.236Z,31.60
2019-01-12T00:32:40.210Z,29.70
2019-01-12T00:33:40.207Z,30.70
2019-01-12T00:34:40.209Z,29.20
2019-01-12T00:35:40.212Z,29.20
2019-01-12T00:36:40.191Z,30.10
2019-01-12T00:37:40.192Z,30.60
2019-01-12T00:38:40.175Z,30.90
2019-01-12T00:39:40.171Z,29.60
2019-01-12T00:40:40.169Z,29.70
2019-01-12T00:41:40.161Z,29.00
2019-01-12T00:42:40.152Z,28.40
2019-01-12T00:43:40.154Z,28.10
2019-01-12T00:44:40.130Z,27.50
2019-01-12T00:45:40.126Z,26.40
2019-01-12T00:46:40.116Z,27.60
2019-01-12T00:47:40.111Z,26.90
2019-01-12T00:48:40.100Z,25.70
2019-01-12T00:49:40.101Z,26.10
2019-01-12T00:50:40.293Z,26.30
2019-01-12T00:51:40.285Z,25.60
2019-01-12T00:52:40.091Z,25.10
2019-01-12T00:53:40.072Z,24.30
2019-01-12T00:54:40.057Z,23.90
2019-01-12T00:55:40.053Z,25.10
2019-01-12T00:56:40.046Z,24.60
2019-01-12T00:57:40.050Z,25.40
2019-01-12T00:58:40.031Z,25.60
2019-01-12T00:59:40.036Z,25.30
2019-01-12T01:00:40.018Z,27.20
2019-01-12T01:01:40.020Z,25.80
2019-01-12T01:02:40.204Z,25.90
2019-01-12T01:03:40.015Z,26.40
2019-01-12T01:04:39.995Z,25.70
2019-01-12T01:05:39.981Z,26.20
2019-01-12T01:06:39.986Z,25.90
2019-01-12T01:07:39.988Z,26.10
2019-01-12T01:08:39.977Z,26.10
2019-01-12T01:09:39.951Z,25.60
2019-01-12T01:10:39.949Z,25.70
2019-01-12T01:11:39.936Z,25.80
2019-01-12T01:12:40.131Z,24.90
2019-01-12T01:13:39.936Z,23.60
2019-01-12T01:14:39.933Z,23.80
2019-01-12T01:15:39.915Z,24.30
2019-01-12T01:16:39.904Z,24.20
2019-01-12T01:17:39.897Z,23.80
2019-01-12T01:18:39.887Z,24.30
2019-01-12T01:19:39.876Z,25.50
2019-01-12T01:20:39.871Z,24.90
2019-01-12T01:21:39.869Z,24.60
2019-01-12T01:22:40.078Z,23.10
2019-01-12T01:23:40.063Z,22.70
2019-01-12T01:24:45.752Z,23.80
2019-01-12T01:25:39.832Z,23.40
2019-01-12T01:26:39.847Z,22.20
2019-01-12T01:27:40.041Z,23.20
2019-01-12T01:28:39.821Z,21.60
2019-01-12T01:29:39.838Z,21.80
2019-01-12T01:30:40.009Z,21.90
2019-01-12T01:31:39.996Z,22.40
2019-01-12T01:32:39.791Z,22.40
2019-01-12T01:33:39.780Z,22.90
2019-01-12T01:34:39.773Z,23.00
2019-01-12T01:35:39.972Z,23.40
2019-01-12T01:36:39.798Z,22.80
2019-01-12T01:37:39.767Z,23.20
2019-01-12T01:38:39.765Z,24.10
2019-01-12T01:39:39.751Z,25.00
2019-01-12T01:40:39.738Z,24.90
2019-01-12T01:41:39.744Z,26.00
2019-01-12T01:42:39.725Z,25.30
2019-01-12T01:43:39.714Z,25.30
2019-01-12T01:44:39.714Z,24.60
2019-01-12T01:45:39.694Z,23.80
2019-01-12T01:46:39.693Z,25.10
2019-01-12T01:47:39.683Z,24.30
2019-01-12T01:48:39.671Z,24.50
2019-01-12T01:49:39.666Z,24.80
2019-01-12T01:50:39.657Z,23.80
2019-01-12T01:51:39.648Z,23.60
2019-01-12T01:52:39.642Z,23.20
2019-01-12T01:53:39.657Z,22.60
2019-01-12T01:54:39.633Z,23.20
2019-01-12T01:55:39.647Z,22.40
2019-01-12T01:56:39.622Z,24.20
2019-01-12T01:57:39.619Z,22.90
2019-01-12T01:58:39.603Z,22.70
2019-01-12T01:59:39.597Z,20.90
2019-01-12T02:00:39.796Z,21.80
2019-01-12T02:01:39.575Z,22.60
2019-01-12T02:02:39.786Z,22.00
2019-01-12T02:03:39.570Z,21.10
2019-01-12T02:04:39.576Z,21.70
2019-01-12T02:05:39.557Z,21.70
2019-01-12T02:06:39.558Z,23.00
2019-01-12T02:07:39.534Z,22.10
2019-01-12T02:08:39.544Z,22.00
2019-01-12T02:09:39.520Z,23.00
2019-01-12T02:10:39.533Z,22.30
2019-01-12T02:11:39.523Z,23.10
2019-01-12T02:12:39.525Z,22.20
2019-01-12T02:13:39.499Z,23.20
2019-01-12T02:14:39.497Z,23.80
2019-01-12T02:15:39.477Z,22.60
2019-01-12T02:16:39.523Z,23.30
2019-01-12T02:17:39.681Z,23.90
2019-01-12T02:18:39.457Z,24.30
2019-01-12T02:19:39.453Z,24.40
2019-01-12T02:20:39.446Z,25.50
2019-01-12T02:21:39.650Z,24.90
2019-01-12T02:22:39.443Z,24.00
2019-01-12T02:23:39.437Z,26.50
2019-01-12T02:24:39.413Z,26.20
2019-01-12T02:25:39.411Z,24.60
2019-01-12T02:26:39.406Z,25.60
2019-01-12T02:27:39.394Z,25.40
2019-01-12T02:28:39.595Z,25.90
2019-01-12T02:29:39.397Z,27.40
2019-01-12T02:30:39.375Z,26.80
2019-01-12T02:31:39.370Z,26.70
2019-01-12T02:32:39.355Z,26.60
2019-01-12T02:33:39.351Z,27.00
2019-01-12T02:34:39.351Z,26.20
2019-01-12T02:35:39.342Z,26.90
2019-01-12T02:36:39.332Z,25.90
2019-01-12T02:37:39.342Z,26.80
2019-01-12T02:38:39.326Z,26.10
2019-01-12T02:39:39.320Z,26.10
2019-01-12T02:40:39.318Z,25.90
2019-01-12T02:41:39.303Z,25.70
2019-01-12T02:42:39.291Z,26.20
2019-01-12T02:43:39.283Z,25.30
2019-01-12T02:44:39.295Z,26.60
2019-01-12T02:45:39.273Z,26.00
2019-01-12T02:46:39.290Z,27.00
2019-01-12T02:47:39.256Z,25.30
2019-01-12T02:48:39.257Z,24.20
2019-01-12T02:49:39.244Z,23.70
2019-01-12T02:50:39.303Z,24.70
2019-01-12T02:51:39.235Z,23.80
2019-01-12T02:52:39.239Z,24.90
2019-01-12T02:53:39.215Z,24.30
2019-01-12T02:54:39.206Z,24.10
2019-01-12T02:55:39.206Z,24.40
2019-01-12T02:56:39.191Z,24.00
2019-01-12T02:57:39.204Z,24.60
2019-01-12T02:58:39.195Z,24.40
2019-01-12T02:59:39.191Z,24.20
2019-01-12T03:00:39.184Z,24.90
2019-01-12T03:01:39.167Z,23.70
2019-01-12T03:02:39.156Z,25.40
2019-01-12T03:03:39.149Z,27.50
2019-01-12T03:04:39.135Z,27.50
2019-01-12T03:05:39.147Z,27.60
2019-01-12T03:06:39.142Z,27.80
2019-01-12T03:07:39.138Z,28.30
2019-01-12T03:08:39.125Z,30.20
2019-01-12T03:09:39.102Z,30.20
2019-01-12T03:10:39.124Z,31.10
2019-01-12T03:11:39.121Z,30.60
2019-01-12T03:12:39.088Z,30.80
2019-01-12T03:13:39.077Z,31.10
2019-01-12T03:14:39.073Z,30.90
2019-01-12T03:15:39.081Z,31.10
2019-01-12T03:16:39.054Z,31.90
2019-01-12T03:17:39.071Z,30.90
2019-01-12T03:18:39.050Z,32.60
2019-01-12T03:19:39.052Z,31.30
2019-01-12T03:20:39.062Z,32.30
2019-01-12T03:21:39.021Z,31.10
2019-01-12T03:22:39.023Z,30.90
2019-01-12T03:23:39.013Z,31.20
2019-01-12T03:24:39.029Z,32.20
2019-01-12T03:25:38.998Z,31.80
2019-01-12T03:26:38.991Z,32.30
2019-01-12T03:27:39.011Z,33.10
2019-01-12T03:28:38.991Z,32.70
2019-01-12T03:29:38.969Z,32.50
2019-01-12T03:30:38.969Z,31.40
2019-01-12T03:31:38.961Z,32.60
2019-01-12T03:32:38.948Z,33.50
2019-01-12T03:33:38.947Z,34.00
2019-01-12T03:34:39.158Z,34.20
2019-01-12T03:35:38.926Z,34.10
2019-01-12T03:36:38.934Z,33.70
2019-01-12T03:37:38.930Z,34.50
2019-01-12T03:38:38.914Z,35.80
2019-01-12T03:39:38.897Z,36.00
2019-01-12T03:40:38.895Z,36.50
2019-01-12T03:41:38.885Z,36.40
2019-01-12T03:42:38.881Z,37.40
2019-01-12T03:43:38.881Z,38.00
2019-01-12T03:44:38.884Z,38.10
2019-01-12T03:45:38.873Z,38.30
2019-01-12T03:46:38.864Z,37.90
2019-01-12T03:47:38.850Z,39.00
2019-01-12T03:48:38.838Z,39.10
2019-01-12T03:49:38.836Z,38.40
2019-01-12T03:50:38.829Z,36.70
2019-01-12T03:51:38.816Z,36.30
2019-01-12T03:52:38.812Z,37.40
2019-01-12T03:53:38.815Z,37.40
2019-01-12T03:54:38.811Z,38.00
2019-01-12T03:55:38.805Z,35.80
2019-01-12T03:56:38.988Z,35.10
2019-01-12T03:57:38.779Z,36.00
2019-01-12T03:58:38.975Z,34.90
2019-01-12T03:59:38.764Z,33.60
2019-01-12T04:00:38.755Z,35.30
2019-01-12T04:01:38.750Z,35.10
2019-01-12T04:02:38.743Z,36.80
2019-01-12T04:03:38.738Z,37.10
2019-01-12T04:04:38.728Z,37.00
2019-01-12T04:05:38.717Z,38.20
2019-01-12T04:06:38.712Z,37.10
2019-01-12T04:07:38.701Z,36.50
2019-01-12T04:08:38.713Z,35.30
2019-01-12T04:09:38.692Z,35.40
2019-01-12T04:10:38.683Z,35.10
2019-01-12T04:11:38.687Z,35.20
2019-01-12T04:12:38.673Z,35.30
2019-01-12T04:13:38.671Z,35.20
2019-01-12T04:14:38.668Z,36.00
2019-01-12T04:15:38.648Z,34.40
2019-01-12T04:16:38.641Z,34.90
2019-01-12T04:17:38.639Z,35.10
2019-01-12T04:18:38.844Z,35.10
2019-01-12T04:19:38.636Z,34.00
2019-01-12T04:20:38.626Z,34.10
2019-01-12T04:21:38.612Z,33.40
2019-01-12T04:22:38.613Z,34.20
2019-01-12T04:23:38.593Z,33.20
2019-01-12T04:24:38.609Z,35.20
2019-01-12T04:25:38.601Z,34.40
2019-01-12T04:26:38.799Z,35.40
2019-01-12T04:27:38.580Z,34.00
2019-01-12T04:28:38.559Z,34.70
2019-01-12T04:29:38.758Z,35.60
2019-01-12T04:30:38.543Z,34.20
2019-01-12T04:31:38.543Z,35.00
2019-01-12T04:32:38.748Z,34.80
2019-01-12T04:33:38.526Z,35.30
2019-01-12T04:34:38.518Z,35.10
2019-01-12T04:35:38.518Z,36.40
2019-01-12T04:36:38.522Z,35.20
2019-01-12T04:37:38.491Z,35.00
2019-01-12T04:38:38.501Z,33.90
2019-01-12T04:39:38.488Z,34.50
2019-01-12T04:40:38.484Z,34.40
2019-01-12T04:41:38.485Z,35.60
2019-01-12T04:42:38.484Z,35.40
2019-01-12T04:43:38.485Z,34.20
2019-01-12T04:44:38.457Z,34.40
2019-01-12T04:45:38.448Z,34.60
2019-01-12T04:46:38.433Z,33.70
2019-01-12T04:47:38.429Z,33.40
2019-01-12T04:48:38.421Z,34.30
2019-01-12T04:49:38.421Z,33.50
2019-01-12T04:50:38.404Z,34.50
2019-01-12T04:51:38.403Z,34.40
2019-01-12T04:52:38.391Z,33.50
2019-01-12T04:53:38.387Z,34.50
2019-01-12T04:54:38.380Z,34.30
2019-01-12T04:55:41.520Z,34.10
2019-01-12T04:56:38.363Z,33.60
2019-01-12T04:57:38.373Z,34.30
2019-01-12T04:58:38.370Z,33.80
2019-01-12T04:59:38.402Z,34.80
2019-01-12T05:00:38.333Z,35.20
2019-01-12T05:01:38.536Z,34.90
2019-01-12T05:02:38.329Z,35.70
2019-01-12T05:03:38.319Z,35.70
2019-01-12T05:04:38.304Z,35.30
2019-01-12T05:05:38.310Z,34.00
2019-01-12T05:06:38.297Z,35.60
2019-01-12T05:07:38.488Z,33.20
2019-01-12T05:08:38.286Z,35.40
2019-01-12T05:09:38.284Z,35.00
2019-01-12T05:10:38.278Z,34.80
2019-01-12T05:11:38.252Z,35.30
2019-01-12T05:12:38.254Z,35.10
2019-01-12T05:13:38.245Z,33.90
2019-01-12T05:14:38.245Z,34.20
2019-01-12T05:15:38.238Z,34.60
2019-01-12T05:16:38.255Z,34.80
2019-01-12T05:17:38.261Z,33.60
2019-01-12T05:18:38.417Z,33.30
2019-01-12T05:19:38.201Z,33.30
2019-01-12T05:20:38.216Z,33.30
2019-01-12T05:21:38.184Z,33.00
2019-01-12T05:22:38.187Z,32.90
2019-01-12T05:23:38.171Z,32.70
2019-01-12T05:24:38.178Z,32.50
2019-01-12T05:25:38.161Z,31.10
2019-01-12T05:26:38.213Z,31.10
2019-01-12T05:27:38.158Z,31.70
2019-01-12T05:28:38.151Z,31.70
2019-01-12T05:29:38.131Z,32.00
2019-01-12T05:30:38.134Z,30.70
2019-01-12T05:31:38.119Z,30.20
2019-01-12T05:32:38.105Z,31.90
2019-01-12T05:33:38.103Z,30.50
2019-01-12T05:34:38.102Z,30.50
2019-01-12T05:35:38.150Z,29.90
2019-01-12T05:36:38.099Z,30.30
2019-01-12T05:37:38.080Z,28.60
2019-01-12T05:38:38.068Z,30.60
2019-01-12T05:39:38.072Z,29.70
2019-01-12T05:40:38.081Z,30.50
2019-01-12T05:41:38.056Z,30.10
2019-01-12T05:42:38.046Z,30.50
2019-01-12T05:43:38.056Z,29.50
2019-01-12T05:44:38.032Z,29.30
2019-01-12T05:45:38.021Z,29.00
2019-01-12T05:46:38.018Z,28.70
2019-01-12T05:47:38.006Z,29.50
2019-01-12T05:48:38.199Z,28.00
2019-01-12T05:49:38.001Z,29.10
2019-01-12T05:50:38.000Z,28.90
2019-01-12T05:51:37.982Z,29.20
2019-01-12T05:52:37.975Z,29.70
2019-01-12T05:53:37.976Z,29.40
2019-01-12T05:54:37.967Z,28.50
2019-01-12T05:55:37.974Z,29.50
2019-01-12T05:56:37.971Z,29.20
2019-01-12T05:57:37.935Z,29.30
2019-01-12T05:58:37.946Z,28.80
2019-01-12T05:59:37.935Z,28.20
2019-01-12T06:00:38.131Z,29.30
2019-01-12T06:01:37.908Z,29.30
2019-01-12T06:02:37.914Z,27.70
2019-01-12T06:03:37.892Z,28.00
2019-01-12T06:04:37.892Z,28.50
2019-01-12T06:05:37.901Z,27.20
2019-01-12T06:06:37.891Z,28.80
2019-01-12T06:07:37.870Z,28.10
2019-01-12T06:08:37.868Z,29.00
2019-01-12T06:09:37.870Z,27.60
2019-01-12T06:10:37.850Z,27.60
2019-01-12T06:11:37.853Z,27.70
2019-01-12T06:12:37.845Z,26.90
2019-01-12T06:13:37.829Z,27.10
2019-01-12T06:14:37.838Z,26.30
2019-01-12T06:15:37.814Z,28.30
2019-01-12T06:16:37.825Z,26.90
2019-01-12T06:17:37.811Z,26.50
2019-01-12T06:18:37.787Z,26.60
2019-01-12T06:19:37.787Z,26.20
2019-01-12T06:20:37.825Z,26.30
2019-01-12T06:21:37.770Z,25.90
2019-01-12T06:22:37.776Z,26.60
2019-01-12T06:23:37.754Z,24.30
2019-01-12T06:24:37.753Z,25.80
2019-01-12T06:25:37.740Z,25.20
2019-01-12T06:26:37.736Z,26.50
2019-01-12T06:27:37.745Z,24.60
2019-01-12T06:28:37.730Z,25.30
2019-01-12T06:29:37.715Z,25.70
2019-01-12T06:30:37.915Z,25.70
2019-01-12T06:31:37.705Z,26.30
2019-01-12T06:32:37.893Z,26.50
2019-01-12T06:33:37.697Z,25.70
2019-01-12T06:34:37.698Z,24.20
2019-01-12T06:35:37.693Z,26.00
2019-01-12T06:36:37.683Z,25.80
2019-01-12T06:37:37.692Z,25.40
2019-01-12T06:38:37.655Z,25.50
2019-01-12T06:39:37.647Z,25.10
2019-01-12T06:40:37.660Z,25.90
2019-01-12T06:41:37.639Z,27.00
2019-01-12T06:42:37.632Z,26.30
2019-01-12T06:43:37.643Z,27.40
2019-01-12T06:44:37.625Z,26.80
2019-01-12T06:45:37.607Z,26.00
2019-01-12T06:46:37.600Z,26.10
2019-01-12T06:47:37.591Z,26.60
2019-01-12T06:48:37.831Z,26.50
2019-01-12T06:49:37.590Z,25.60
2019-01-12T06:50:37.570Z,24.80
2019-01-12T06:51:37.586Z,25.90
2019-01-12T06:52:37.566Z,23.80
2019-01-12T06:53:37.560Z,23.60
2019-01-12T06:54:37.560Z,23.40
2019-01-12T06:55:37.546Z,23.90
2019-01-12T06:56:37.539Z,23.80
2019-01-12T06:57:37.534Z,24.40
2019-01-12T06:58:37.538Z,23.60
2019-01-12T06:59:37.521Z,24.10
2019-01-12T07:00:37.526Z,23.30
2019-01-12T07:01:37.508Z,22.70
2019-01-12T07:02:37.509Z,22.40
2019-01-12T07:03:37.518Z,22.90
2019-01-12T07:04:37.489Z,23.40
2019-01-12T07:05:37.475Z,23.40
2019-01-12T07:06:37.473Z,22.90
2019-01-12T07:07:37.462Z,23.10
2019-01-12T07:08:37.465Z,23.50
2019-01-12T07:09:37.446Z,23.80
2019-01-12T07:10:37.440Z,23.70
2019-01-12T07:11:37.448Z,25.10
2019-01-12T07:12:37.439Z,25.70
2019-01-12T07:13:37.431Z,25.50
2019-01-12T07:14:37.429Z,26.50
2019-01-12T07:15:37.410Z,25.80
2019-01-12T07:16:37.399Z,25.90
2019-01-12T07:17:37.405Z,27.10
2019-01-12T07:18:37.426Z,26.70
2019-01-12T07:19:37.601Z,25.70
2019-01-12T07:20:37.391Z,26.30
2019-01-12T07:21:37.364Z,26.00
2019-01-12T07:22:37.361Z,27.20
2019-01-12T07:23:37.357Z,26.10
2019-01-12T07:24:37.353Z,25.80
2019-01-12T07:25:37.346Z,26.50
2019-01-12T07:26:37.550Z,26.60
2019-01-12T07:27:37.324Z,25.90
2019-01-12T07:28:37.322Z,25.80
2019-01-12T07:29:37.313Z,25.70
2019-01-12T07:30:37.322Z,25.60
2019-01-12T07:31:37.505Z,25.30
2019-01-12T07:32:37.297Z,25.10
2019-01-12T07:33:37.303Z,25.30
2019-01-12T07:34:37.300Z,25.10
2019-01-12T07:35:37.283Z,24.70
2019-01-12T07:36:37.262Z,25.70
2019-01-12T07:37:37.280Z,25.00
2019-01-12T07:38:37.274Z,25.00
2019-01-12T07:39:37.253Z,25.70
2019-01-12T07:40:37.286Z,25.20
2019-01-12T07:41:37.256Z,25.20
2019-01-12T07:42:37.254Z,25.90
2019-01-12T07:43:37.237Z,25.00
2019-01-12T07:44:37.225Z,24.30
2019-01-12T07:45:37.202Z,25.30
2019-01-12T07:46:37.201Z,26.00
2019-01-12T07:47:37.193Z,25.30
2019-01-12T07:48:37.213Z,24.90
2019-01-12T07:49:37.184Z,25.30
2019-01-12T07:50:37.168Z,25.10
2019-01-12T07:51:37.162Z,26.00
2019-01-12T07:52:37.156Z,26.00
2019-01-12T07:53:37.149Z,25.10
2019-01-12T07:54:37.148Z,27.00
2019-01-12T07:55:37.144Z,26.40
2019-01-12T07:56:37.155Z,26.10
2019-01-12T07:57:37.138Z,26.10
2019-01-12T07:58:37.128Z,26.50
2019-01-12T07:59:37.109Z,26.70
2019-01-12T08:00:37.098Z,26.00
2019-01-12T08:01:37.150Z,27.30
2019-01-12T08:02:37.088Z,27.20
2019-01-12T08:03:37.091Z,27.20
2019-01-12T08:04:37.095Z,28.90
2019-01-12T08:05:37.087Z,27.80
2019-01-12T08:06:37.285Z,28.60
2019-01-12T08:07:37.071Z,29.70
2019-01-12T08:08:37.270Z,29.40
2019-01-12T08:09:37.045Z,30.10
2019-01-12T08:10:37.056Z,29.80
2019-01-12T08:11:37.056Z,30.10
2019-01-12T08:12:37.020Z,31.80
2019-01-12T08:13:37.020Z,31.80
2019-01-12T08:14:37.008Z,31.10
2019-01-12T08:15:36.997Z,30.80
2019-01-12T08:16:36.998Z,33.50
2019-01-12T08:17:36.990Z,31.90
2019-01-12T08:18:36.993Z,30.50
2019-01-12T08:19:36.991Z,32.60
2019-01-12T08:20:36.996Z,31.40
2019-01-12T08:21:36.962Z,32.00
2019-01-12T08:22:36.978Z,31.70
2019-01-12T08:23:37.156Z,32.00
2019-01-12T08:24:37.141Z,31.40
2019-01-12T08:25:36.944Z,31.70
2019-01-12T08:26:36.921Z,32.10
2019-01-12T08:27:36.930Z,32.40
2019-01-12T08:28:36.921Z,33.20
2019-01-12T08:29:36.915Z,32.20
2019-01-12T08:30:37.105Z,31.90
2019-01-12T08:31:36.896Z,33.40
2019-01-12T08:32:36.883Z,32.40
2019-01-12T08:33:36.875Z,33.40
2019-01-12T08:34:36.873Z,32.10
2019-01-12T08:35:36.887Z,32.50
2019-01-12T08:36:36.874Z,32.20
2019-01-12T08:37:36.874Z,32.00
2019-01-12T08:38:36.853Z,34.90
2019-01-12T08:39:37.051Z,33.80
2019-01-12T08:40:36.831Z,32.90
2019-01-12T08:41:36.846Z,33.80
2019-01-12T08:42:36.815Z,31.40
2019-01-12T08:43:36.813Z,32.50
2019-01-12T08:44:36.821Z,31.90
2019-01-12T08:45:36.807Z,32.40
2019-01-12T08:46:36.789Z,32.60
2019-01-12T08:47:36.796Z,32.60
2019-01-12T08:48:36.782Z,34.00
2019-01-12T08:49:36.774Z,32.90
2019-01-12T08:50:36.768Z,33.20
2019-01-12T08:51:36.779Z,33.50
2019-01-12T08:52:36.820Z,32.80
2019-01-12T08:53:36.749Z,34.90
2019-01-12T08:54:36.747Z,34.00
2019-01-12T08:55:36.737Z,33.90
2019-01-12T08:56:38.403Z,33.80
2019-01-12T08:57:36.718Z,34.40
2019-01-12T08:58:36.721Z,33.10
2019-01-12T08:59:36.709Z,35.80
2019-01-12T09:00:36.694Z,33.30
2019-01-12T09:01:36.707Z,33.50
2019-01-12T09:02:36.893Z,32.00
2019-01-12T09:03:36.690Z,33.70
2019-01-12T09:04:43.396Z,33.80
2019-01-12T09:05:36.673Z,33.00
2019-01-12T09:06:36.658Z,33.40
2019-01-12T09:07:36.647Z,32.20
2019-01-12T09:08:36.652Z,32.80
2019-01-12T09:09:36.631Z,33.70
2019-01-12T09:10:36.637Z,32.80
2019-01-12T09:11:36.617Z,31.60
2019-01-12T09:12:36.615Z,32.70
2019-01-12T09:13:36.637Z,32.70
2019-01-12T09:14:36.595Z,32.30
2019-01-12T09:15:36.601Z,31.90
2019-01-12T09:16:36.599Z,33.90
2019-01-12T09:17:36.592Z,33.20
2019-01-12T09:18:36.617Z,33.00
2019-01-12T09:19:36.778Z,32.80
2019-01-12T09:20:36.555Z,32.40
2019-01-12T09:21:36.574Z,33.90
2019-01-12T09:22:36.546Z,32.80
2019-01-12T09:23:36.548Z,33.30
2019-01-12T09:24:36.540Z,32.90
2019-01-12T09:25:36.523Z,33.90
2019-01-12T09:26:36.514Z,33.30
2019-01-12T09:27:36.515Z,34.10
2019-01-12T09:28:36.523Z,34.40
2019-01-12T09:29:36.515Z,34.00
2019-01-12T09:30:36.488Z,35.50
2019-01-12T09:31:36.697Z,33.10
2019-01-12T09:32:36.477Z,33.70
2019-01-12T09:33:36.682Z,33.50
2019-01-12T09:34:36.467Z,33.70
2019-01-12T09:35:36.455Z,32.20
2019-01-12T09:36:36.462Z,32.80
2019-01-12T09:37:36.469Z,33.10
2019-01-12T09:38:36.462Z,32.60
2019-01-12T09:39:36.429Z,33.40
2019-01-12T09:40:36.440Z,32.20
2019-01-12T09:41:36.439Z,33.00
2019-01-12T09:42:36.420Z,32.40
2019-01-12T09:43:36.408Z,33.30
2019-01-12T09:44:36.614Z,33.50
2019-01-12T09:45:36.395Z,31.50
2019-01-12T09:46:36.385Z,31.80
2019-01-12T09:47:36.396Z,32.90
2019-01-12T09:48:36.380Z,32.60
2019-01-12T09:49:36.369Z,31.40
2019-01-12T09:50:36.360Z,32.20
2019-01-12T09:51:36.363Z,32.10
2019-01-12T09:52:36.338Z,32.50
2019-01-12T09:53:36.397Z,32.30
2019-01-12T09:54:36.550Z,31.60
2019-01-12T09:55:36.336Z,31.60
2019-01-12T09:56:36.348Z,32.10
2019-01-12T09:57:36.525Z,31.50
2019-01-12T09:58:36.307Z,31.40
2019-01-12T09:59:36.299Z,31.70
2019-01-12T10:00:36.321Z,31.10
2019-01-12T10:01:36.283Z,30.60
2019-01-12T10:02:36.276Z,31.60
2019-01-12T10:03:36.499Z,31.20
2019-01-12T10:04:36.270Z,31.60
2019-01-12T10:05:36.276Z,30.00
2019-01-12T10:06:36.252Z,30.90
2019-01-12T10:07:36.247Z,31.20
2019-01-12T10:08:36.251Z,29.80
2019-01-12T10:09:36.239Z,29.40
2019-01-12T10:10:36.235Z,31.10
2019-01-12T10:11:36.226Z,30.00
2019-01-12T10:12:36.211Z,30.70
2019-01-12T10:13:36.251Z,31.60
2019-01-12T10:14:36.197Z,31.40
2019-01-12T10:15:36.183Z,31.20
2019-01-12T10:16:36.188Z,31.20
2019-01-12T10:17:36.195Z,31.70
2019-01-12T10:18:36.179Z,31.30
2019-01-12T10:19:36.168Z,32.60
2019-01-12T10:20:36.151Z,31.30
2019-01-12T10:21:36.152Z,31.40
2019-01-12T10:22:36.142Z,31.60
2019-01-12T10:23:36.133Z,31.20
2019-01-12T10:24:36.135Z,31.30
2019-01-12T10:25:36.122Z,30.90
2019-01-12T10:26:36.116Z,30.70
2019-01-12T10:27:36.099Z,30.40
2019-01-12T10:28:36.098Z,30.80
2019-01-12T10:29:36.105Z,30.70
2019-01-12T10:30:36.081Z,31.60
2019-01-12T10:31:36.079Z,30.00
2019-01-12T10:32:36.065Z,30.10
2019-01-12T10:33:36.066Z,29.90
2019-01-12T10:34:36.066Z,29.70
2019-01-12T10:35:36.046Z,29.60
2019-01-12T10:36:36.061Z,29.40
2019-01-12T10:37:36.035Z,29.00
2019-01-12T10:38:36.026Z,29.30
2019-01-12T10:39:36.039Z,27.90
2019-01-12T10:40:36.025Z,28.40
2019-01-12T10:41:36.015Z,27.90
2019-01-12T10:42:36.017Z,28.30
2019-01-12T10:43:36.211Z,27.10
2019-01-12T10:44:36.013Z,26.90
2019-01-12T10:45:35.985Z,27.70
2019-01-12T10:46:35.985Z,28.10
2019-01-12T10:47:35.968Z,26.50
2019-01-12T10:48:35.959Z,27.20
2019-01-12T10:49:35.972Z,27.30
2019-01-12T10:50:35.943Z,28.60
2019-01-12T10:51:35.945Z,28.60
2019-01-12T10:52:35.951Z,27.30
2019-01-12T10:53:35.929Z,27.20
2019-01-12T10:54:35.919Z,28.90
2019-01-12T10:55:35.914Z,26.70
2019-01-12T10:56:35.935Z,27.60
2019-01-12T10:57:35.918Z,27.30
2019-01-12T10:58:35.923Z,26.90
2019-01-12T10:59:35.910Z,25.90
2019-01-12T11:00:35.879Z,27.40
2019-01-12T11:01:35.898Z,27.00
2019-01-12T11:02:35.878Z,27.00
2019-01-12T11:03:35.873Z,27.70
2019-01-12T11:04:35.848Z,27.20
2019-01-12T11:05:35.885Z,27.10
2019-01-12T11:06:35.873Z,27.80
2019-01-12T11:07:35.843Z,27.10
2019-01-12T11:08:35.838Z,27.40
2019-01-12T11:09:35.846Z,27.60
2019-01-12T11:10:35.836Z,27.50
2019-01-12T11:11:35.820Z,27.90
2019-01-12T11:12:35.818Z,28.30
2019-01-12T11:13:35.794Z,27.30
2019-01-12T11:14:35.785Z,27.20
2019-01-12T11:15:35.791Z,28.00
2019-01-12T11:16:35.781Z,27.20
2019-01-12T11:17:35.770Z,26.60
2019-01-12T11:18:35.774Z,27.40
2019-01-12T11:19:35.975Z,26.80
2019-01-12T11:20:35.756Z,28.30
2019-01-12T11:21:35.758Z,27.20
2019-01-12T11:22:35.956Z,25.90
2019-01-12T11:23:35.745Z,25.70
2019-01-12T11:24:35.714Z,26.00
2019-01-12T11:25:42.610Z,26.70
2019-01-12T11:26:35.732Z,26.10
2019-01-12T11:27:35.709Z,26.60
2019-01-12T11:28:35.721Z,26.60
2019-01-12T11:29:35.687Z,26.60
2019-01-12T11:30:35.671Z,27.10
2019-01-12T11:31:35.690Z,27.60
2019-01-12T11:32:35.655Z,28.00
2019-01-12T11:33:35.652Z,27.40
2019-01-12T11:34:35.643Z,28.20
2019-01-12T11:35:35.654Z,26.20
2019-01-12T11:36:35.633Z,27.90
2019-01-12T11:37:35.631Z,27.60
2019-01-12T11:38:35.635Z,26.90
2019-01-12T11:39:35.612Z,28.10
2019-01-12T11:40:35.619Z,27.20
2019-01-12T11:41:35.613Z,29.00
2019-01-12T11:42:35.588Z,28.20
2019-01-12T11:43:35.583Z,28.90
2019-01-12T11:44:35.606Z,30.00
2019-01-12T11:45:35.577Z,30.90
2019-01-12T11:46:35.567Z,29.60
2019-01-12T11:47:35.552Z,30.80
2019-01-12T11:48:35.560Z,30.80
2019-01-12T11:49:35.576Z,30.50
2019-01-12T11:50:35.542Z,31.10
2019-01-12T11:51:35.543Z,30.50
2019-01-12T11:52:35.536Z,30.60
2019-01-12T11:53:35.524Z,30.70
2019-01-12T11:54:35.511Z,30.50
2019-01-12T11:55:35.517Z,30.90
2019-01-12T11:56:35.490Z,31.00
2019-01-12T11:57:35.488Z,30.30
2019-01-12T11:58:35.482Z,29.60
2019-01-12T11:59:35.491Z,30.30
2019-01-12T12:00:35.462Z,29.70
2019-01-12T12:01:35.661Z,30.40
2019-01-12T12:02:37.891Z,29.00
2019-01-12T12:03:35.455Z,30.20
2019-01-12T12:04:35.441Z,29.80
2019-01-12T12:05:35.446Z,29.70
2019-01-12T12:06:35.426Z,30.50
2019-01-12T12:07:35.422Z,31.10
2019-01-12T12:08:35.427Z,30.00
2019-01-12T12:09:35.415Z,31.30
2019-01-12T12:10:35.405Z,31.50
2019-01-12T12:11:35.400Z,30.50
2019-01-12T12:12:35.393Z,32.50
2019-01-12T12:13:35.382Z,31.50
2019-01-12T12:14:35.392Z,32.20
2019-01-12T12:15:35.373Z,33.20
2019-01-12T12:16:35.363Z,32.40
2019-01-12T12:17:35.346Z,32.00
2019-01-12T12:18:35.335Z,31.70
2019-01-12T12:19:35.368Z,33.40
2019-01-12T12:20:35.334Z,32.70
2019-01-12T12:21:35.333Z,33.50
2019-01-12T12:22:35.316Z,31.90
2019-01-12T12:23:35.304Z,32.10
2019-01-12T12:24:35.293Z,31.90
2019-01-12T12:25:35.296Z,34.10
2019-01-12T12:26:35.282Z,32.40
2019-01-12T12:27:35.279Z,31.40
2019-01-12T12:28:35.275Z,31.80
2019-01-12T12:29:35.270Z,32.70
2019-01-12T12:30:35.268Z,32.60
2019-01-12T12:31:35.248Z,31.60
2019-01-12T12:32:35.446Z,31.50
2019-01-12T12:33:35.241Z,31.10
2019-01-12T12:34:35.228Z,32.10
2019-01-12T12:35:37.921Z,31.80
2019-01-12T12:36:35.216Z,30.80
2019-01-12T12:37:35.221Z,30.40
2019-01-12T12:38:35.206Z,30.70
2019-01-12T12:39:35.192Z,31.40
2019-01-12T12:40:35.203Z,31.00
2019-01-12T12:41:35.193Z,31.20
2019-01-12T12:42:35.171Z,31.50
2019-01-12T12:43:36.377Z,30.70
2019-01-12T12:44:35.178Z,31.20
2019-01-12T12:45:35.156Z,30.70
2019-01-12T12:46:35.150Z,30.10
2019-01-12T12:47:35.144Z,30.50
2019-01-12T12:48:35.142Z,30.20
2019-01-12T12:49:35.136Z,30.30
2019-01-12T12:50:35.144Z,30.50
2019-01-12T12:51:35.112Z,29.20
2019-01-12T12:52:35.111Z,29.20